Airfield :
LOGIN :

Register | Disclaimer

   EN    FR    IT 

 










Legend :    VFR   Marginal VFR   IFR   Intensive IFR   Very Intensive IFR
Visi :
Ceiling :
>= 8 km
>= 3000ft
5 to 8 km
1000 to 3000 ft
1500m to 5 km
500 to 1000 ft
800 to 1500m
200 to 500 ft
< 800m
< 200 ft
Symbols :   Thunderstorms  Fog  Heavy snow  Heavy precipitations  Wind > 20 kt
SIGMETs :     Misc.  Thunderstorms  Icing  Turbulence  Mountain Waves  Volcanic Ashes






- Airport Elevation : 156 ft
- IATA code : MLN


GEML - Melilla

CURRENT METAR :
  • 211800Z 25006KT 200V290 CAVOK 17/09 Q1021

EXPIRED METARs :
  • 211730Z 25007KT 200V280 CAVOK 17/09 Q1021
  • 211700Z 26010KT CAVOK 18/08 Q1021
  • 211630Z 27008KT 240V300 CAVOK 18/08 Q1021
  • 211600Z 29007KT 240V330 CAVOK 18/09 Q1021
  • 211530Z 27005KT 200V320 CAVOK 19/09 Q1021

TAF TAF GEML
Valid from the 21 at 15:00 until the 22 at 15:00 UTC


211400Z 2115/2215 25007KT 9999 FEW030 TX19/2115Z TN11/2203Z
BECMG 2213/2215 28018G30KT



MET'MAP, your aeronautical weather chart ! - Copyright ORBIFLY December 2007 - Disclaimer

ORBIFLY MET'MAP TEAM :

Programming & Development : Alexandra Zaïnal
Concept & original design : Baudouin d'Aumeries
Assistance for programming : Marc-Olivier Méhu
Technical & hardware support : Manuel Goepfert

Contact : metmap@orbifly.com




SOURCES & CREDITS :

   NOAA